sensor_id;sensor_type;location;lat;lon;timestamp;pressure;altitude;pressure_sealevel;temperature;humidity
3544;BME280;1786;52.870;9.578;2023-07-24T00:00:27;99514.63;;;27.80;57.26
3544;BME280;1786;52.870;9.578;2023-07-24T00:02:54;99499.94;;;28.28;56.17
3544;BME280;1786;52.870;9.578;2023-07-24T00:05:22;99503.81;;;28.32;55.99
3544;BME280;1786;52.870;9.578;2023-07-24T00:07:49;99508.91;;;28.40;55.64
3544;BME280;1786;52.870;9.578;2023-07-24T00:10:16;99497.34;;;28.74;54.95
3544;BME280;1786;52.870;9.578;2023-07-24T00:12:43;99497.38;;;28.62;55.36
3544;BME280;1786;52.870;9.578;2023-07-24T00:15:09;99498.16;;;28.22;56.03
3544;BME280;1786;52.870;9.578;2023-07-24T00:17:36;99492.91;;;28.44;55.83
3544;BME280;1786;52.870;9.578;2023-07-24T00:20:03;99498.34;;;28.56;55.53
3544;BME280;1786;52.870;9.578;2023-07-24T00:22:30;99494.09;;;28.08;56.52
3544;BME280;1786;52.870;9.578;2023-07-24T00:24:57;99486.75;;;28.20;56.71
3544;BME280;1786;52.870;9.578;2023-07-24T00:27:24;99487.94;;;28.00;57.02
3544;BME280;1786;52.870;9.578;2023-07-24T00:29:51;99480.50;;;28.08;56.85
3544;BME280;1786;52.870;9.578;2023-07-24T00:32:18;99478.59;;;28.08;57.01
3544;BME280;1786;52.870;9.578;2023-07-24T00:34:44;99477.63;;;28.26;56.44
3544;BME280;1786;52.870;9.578;2023-07-24T00:37:11;99475.59;;;28.33;56.61
3544;BME280;1786;52.870;9.578;2023-07-24T00:39:37;99475.19;;;28.13;57.18
3544;BME280;1786;52.870;9.578;2023-07-24T00:42:04;99476.41;;;28.45;56.06
3544;BME280;1786;52.870;9.578;2023-07-24T00:44:31;99487.50;;;28.56;55.97
3544;BME280;1786;52.870;9.578;2023-07-24T00:46:58;99486.28;;;28.63;56.05
3544;BME280;1786;52.870;9.578;2023-07-24T00:49:25;99482.53;;;28.00;57.58
3544;BME280;1786;52.870;9.578;2023-07-24T00:51:52;99472.81;;;27.81;57.71
3544;BME280;1786;52.870;9.578;2023-07-24T00:54:19;99472.97;;;27.98;57.57
3544;BME280;1786;52.870;9.578;2023-07-24T00:56:46;99476.16;;;27.83;57.81
3544;BME280;1786;52.870;9.578;2023-07-24T00:59:14;99474.84;;;27.74;58.15
3544;BME280;1786;52.870;9.578;2023-07-24T01:01:41;99472.25;;;27.67;58.28
3544;BME280;1786;52.870;9.578;2023-07-24T01:04:08;99473.66;;;27.46;58.92
3544;BME280;1786;52.870;9.578;2023-07-24T01:06:35;99466.38;;;27.16;59.34
3544;BME280;1786;52.870;9.578;2023-07-24T01:09:02;99466.13;;;27.95;57.68
3544;BME280;1786;52.870;9.578;2023-07-24T01:11:38;99470.09;;;27.81;58.13
3544;BME280;1786;52.870;9.578;2023-07-24T01:14:33;99469.88;;;28.06;57.22
3544;BME280;1786;52.870;9.578;2023-07-24T01:17:07;99474.72;;;27.80;57.43
3544;BME280;1786;52.870;9.578;2023-07-24T01:19:42;99476.03;;;27.43;58.80
3544;BME280;1786;52.870;9.578;2023-07-24T01:22:25;99481.66;;;28.12;57.19
3544;BME280;1786;52.870;9.578;2023-07-24T01:25:18;99474.00;;;28.09;56.95
3544;BME280;1786;52.870;9.578;2023-07-24T01:27:49;99480.13;;;28.16;57.02
3544;BME280;1786;52.870;9.578;2023-07-24T01:30:18;99475.63;;;28.10;56.99
3544;BME280;1786;52.870;9.578;2023-07-24T01:32:46;99471.66;;;28.00;56.84
3544;BME280;1786;52.870;9.578;2023-07-24T01:35:15;99468.66;;;28.25;56.19
3544;BME280;1786;52.870;9.578;2023-07-24T01:37:43;99470.03;;;27.88;56.83
3544;BME280;1786;52.870;9.578;2023-07-24T01:40:13;99467.50;;;27.74;57.07
3544;BME280;1786;52.870;9.578;2023-07-24T01:42:40;99472.16;;;27.97;56.45
3544;BME280;1786;52.870;9.578;2023-07-24T01:45:08;99472.78;;;28.28;55.59
3544;BME280;1786;52.870;9.578;2023-07-24T01:47:34;99471.19;;;28.03;55.82
3544;BME280;1786;52.870;9.578;2023-07-24T01:50:01;99473.88;;;28.15;55.77
3544;BME280;1786;52.870;9.578;2023-07-24T01:52:28;99466.38;;;28.34;55.21
3544;BME280;1786;52.870;9.578;2023-07-24T01:54:54;99463.84;;;28.56;54.70
3544;BME280;1786;52.870;9.578;2023-07-24T01:57:22;99452.16;;;28.73;54.15
3544;BME280;1786;52.870;9.578;2023-07-24T01:59:48;99466.22;;;28.81;54.19
3544;BME280;1786;52.870;9.578;2023-07-24T02:02:16;99453.56;;;29.04;53.46
3544;BME280;1786;52.870;9.578;2023-07-24T02:04:42;99453.19;;;28.83;53.71
3544;BME280;1786;52.870;9.578;2023-07-24T02:07:09;99449.94;;;29.15;53.26
3544;BME280;1786;52.870;9.578;2023-07-24T02:09:36;99449.38;;;29.30;52.99
3544;BME280;1786;52.870;9.578;2023-07-24T02:12:03;99449.06;;;28.98;53.71
3544;BME280;1786;52.870;9.578;2023-07-24T02:14:29;99450.28;;;28.44;54.98
3544;BME280;1786;52.870;9.578;2023-07-24T02:16:56;99445.59;;;28.68;54.57
3544;BME280;1786;52.870;9.578;2023-07-24T02:19:23;99448.25;;;28.97;54.07
3544;BME280;1786;52.870;9.578;2023-07-24T02:21:49;99444.53;;;28.86;54.35
3544;BME280;1786;52.870;9.578;2023-07-24T02:24:16;99448.47;;;29.07;54.00
3544;BME280;1786;52.870;9.578;2023-07-24T02:26:43;99439.38;;;29.02;54.05
3544;BME280;1786;52.870;9.578;2023-07-24T02:29:10;99441.88;;;28.58;55.07
3544;BME280;1786;52.870;9.578;2023-07-24T02:31:37;99438.41;;;29.25;53.71
3544;BME280;1786;52.870;9.578;2023-07-24T02:34:03;99441.69;;;28.93;54.58
3544;BME280;1786;52.870;9.578;2023-07-24T02:36:31;99437.16;;;28.99;54.41
3544;BME280;1786;52.870;9.578;2023-07-24T02:38:58;99446.91;;;29.28;53.72
3544;BME280;1786;52.870;9.578;2023-07-24T02:41:25;99435.34;;;28.59;55.77
3544;BME280;1786;52.870;9.578;2023-07-24T02:43:52;99439.25;;;28.63;55.31
3544;BME280;1786;52.870;9.578;2023-07-24T02:46:19;99437.88;;;27.96;57.14
3544;BME280;1786;52.870;9.578;2023-07-24T02:48:45;99443.84;;;28.22;56.34
3544;BME280;1786;52.870;9.578;2023-07-24T02:51:12;99434.91;;;28.10;56.81
3544;BME280;1786;52.870;9.578;2023-07-24T02:53:39;99440.44;;;28.15;56.66
3544;BME280;1786;52.870;9.578;2023-07-24T02:56:06;99450.84;;;28.75;55.20
3544;BME280;1786;52.870;9.578;2023-07-24T02:58:32;99448.34;;;28.57;55.75
3544;BME280;1786;52.870;9.578;2023-07-24T03:01:03;99452.25;;;28.61;55.27
3544;BME280;1786;52.870;9.578;2023-07-24T03:03:31;99445.81;;;28.38;55.82
3544;BME280;1786;52.870;9.578;2023-07-24T03:05:58;99439.88;;;28.53;55.62
3544;BME280;1786;52.870;9.578;2023-07-24T03:08:24;99442.91;;;28.85;54.67
3544;BME280;1786;52.870;9.578;2023-07-24T03:10:51;99444.72;;;28.97;54.46
3544;BME280;1786;52.870;9.578;2023-07-24T03:13:18;99448.09;;;28.87;54.80
3544;BME280;1786;52.870;9.578;2023-07-24T03:15:52;99442.97;;;28.74;55.01
3544;BME280;1786;52.870;9.578;2023-07-24T03:18:20;99444.41;;;28.64;54.98
3544;BME280;1786;52.870;9.578;2023-07-24T03:20:46;99438.59;;;29.18;54.00
3544;BME280;1786;52.870;9.578;2023-07-24T03:23:13;99441.19;;;29.13;53.66
3544;BME280;1786;52.870;9.578;2023-07-24T03:25:40;99432.94;;;28.91;54.40
3544;BME280;1786;52.870;9.578;2023-07-24T03:28:07;99435.44;;;29.09;53.88
3544;BME280;1786;52.870;9.578;2023-07-24T03:30:34;99446.56;;;29.08;54.06
3544;BME280;1786;52.870;9.578;2023-07-24T03:33:02;99452.47;;;29.05;54.24
3544;BME280;1786;52.870;9.578;2023-07-24T03:35:30;99446.63;;;29.13;54.13
3544;BME280;1786;52.870;9.578;2023-07-24T03:37:57;99438.28;;;28.57;55.51
3544;BME280;1786;52.870;9.578;2023-07-24T03:40:25;99434.13;;;28.38;55.89
3544;BME280;1786;52.870;9.578;2023-07-24T03:42:51;99429.41;;;28.33;55.90
3544;BME280;1786;52.870;9.578;2023-07-24T03:45:18;99436.88;;;28.83;54.64
3544;BME280;1786;52.870;9.578;2023-07-24T03:47:45;99434.53;;;28.18;56.46
3544;BME280;1786;52.870;9.578;2023-07-24T03:50:12;99432.88;;;28.17;56.69
3544;BME280;1786;52.870;9.578;2023-07-24T03:52:39;99429.81;;;28.13;56.61
3544;BME280;1786;52.870;9.578;2023-07-24T03:55:07;99423.06;;;28.27;56.19
3544;BME280;1786;52.870;9.578;2023-07-24T03:57:34;99423.69;;;28.46;55.96
3544;BME280;1786;52.870;9.578;2023-07-24T04:00:02;99420.28;;;27.99;56.69
3544;BME280;1786;52.870;9.578;2023-07-24T04:02:38;99414.16;;;27.80;57.80
3544;BME280;1786;52.870;9.578;2023-07-24T04:05:06;99413.25;;;28.15;57.01
3544;BME280;1786;52.870;9.578;2023-07-24T04:07:33;99409.63;;;28.09;56.97
3544;BME280;1786;52.870;9.578;2023-07-24T04:10:00;99410.00;;;28.41;55.94
3544;BME280;1786;52.870;9.578;2023-07-24T04:12:28;99408.91;;;28.42;56.19
3544;BME280;1786;52.870;9.578;2023-07-24T04:14:55;99416.56;;;28.57;55.66
3544;BME280;1786;52.870;9.578;2023-07-24T04:17:22;99420.56;;;28.26;56.21
3544;BME280;1786;52.870;9.578;2023-07-24T04:19:49;99417.75;;;28.21;57.00
3544;BME280;1786;52.870;9.578;2023-07-24T04:22:16;99419.03;;;28.59;55.99
3544;BME280;1786;52.870;9.578;2023-07-24T04:24:42;99416.91;;;28.61;56.17
3544;BME280;1786;52.870;9.578;2023-07-24T04:27:09;99414.66;;;29.03;55.14
3544;BME280;1786;52.870;9.578;2023-07-24T04:29:36;99409.88;;;29.10;54.87
3544;BME280;1786;52.870;9.578;2023-07-24T04:32:03;99416.25;;;29.16;54.91
3544;BME280;1786;52.870;9.578;2023-07-24T04:34:29;99408.56;;;29.13;54.77
3544;BME280;1786;52.870;9.578;2023-07-24T04:36:56;99402.38;;;29.18;54.37
3544;BME280;1786;52.870;9.578;2023-07-24T04:39:23;99403.75;;;29.54;54.09
3544;BME280;1786;52.870;9.578;2023-07-24T04:41:49;99406.25;;;29.39;54.25
3544;BME280;1786;52.870;9.578;2023-07-24T04:44:17;99405.09;;;29.34;54.62
3544;BME280;1786;52.870;9.578;2023-07-24T04:46:43;99395.59;;;29.20;54.72
3544;BME280;1786;52.870;9.578;2023-07-24T04:49:10;99393.03;;;28.97;55.48
3544;BME280;1786;52.870;9.578;2023-07-24T04:51:37;99390.41;;;28.68;55.81
3544;BME280;1786;52.870;9.578;2023-07-24T04:54:04;99395.34;;;28.14;57.36
3544;BME280;1786;52.870;9.578;2023-07-24T04:56:31;99386.34;;;27.85;58.10
3544;BME280;1786;52.870;9.578;2023-07-24T04:58:58;99378.19;;;28.25;57.49
3544;BME280;1786;52.870;9.578;2023-07-24T05:01:25;99375.94;;;28.22;57.59
3544;BME280;1786;52.870;9.578;2023-07-24T05:03:51;99375.16;;;28.38;57.50
3544;BME280;1786;52.870;9.578;2023-07-24T05:06:18;99374.78;;;28.46;56.94
3544;BME280;1786;52.870;9.578;2023-07-24T05:08:45;99366.34;;;29.10;55.88
3544;BME280;1786;52.870;9.578;2023-07-24T05:11:11;99358.34;;;28.70;56.40
3544;BME280;1786;52.870;9.578;2023-07-24T05:13:38;99354.09;;;27.88;58.35
3544;BME280;1786;52.870;9.578;2023-07-24T05:16:05;99344.13;;;28.05;58.24
3544;BME280;1786;52.870;9.578;2023-07-24T05:18:32;99346.47;;;28.02;58.49
3544;BME280;1786;52.870;9.578;2023-07-24T05:20:59;99350.16;;;27.96;58.57
3544;BME280;1786;52.870;9.578;2023-07-24T05:23:26;99347.50;;;28.41;57.60
3544;BME280;1786;52.870;9.578;2023-07-24T05:25:59;99350.59;;;28.79;56.72
3544;BME280;1786;52.870;9.578;2023-07-24T05:28:27;99350.03;;;29.10;56.22
3544;BME280;1786;52.870;9.578;2023-07-24T05:30:54;99348.59;;;29.42;55.48
3544;BME280;1786;52.870;9.578;2023-07-24T05:33:21;99351.47;;;29.35;54.59
3544;BME280;1786;52.870;9.578;2023-07-24T05:35:48;99360.06;;;29.44;55.00
3544;BME280;1786;52.870;9.578;2023-07-24T05:38:16;99357.13;;;29.50;54.99
3544;BME280;1786;52.870;9.578;2023-07-24T05:40:43;99359.50;;;29.25;55.63
3544;BME280;1786;52.870;9.578;2023-07-24T05:43:09;99354.13;;;28.62;57.08
3544;BME280;1786;52.870;9.578;2023-07-24T05:45:36;99346.63;;;28.69;56.65
3544;BME280;1786;52.870;9.578;2023-07-24T05:48:03;99341.81;;;28.43;57.40
3544;BME280;1786;52.870;9.578;2023-07-24T05:50:30;99333.03;;;28.24;58.48
3544;BME280;1786;52.870;9.578;2023-07-24T05:52:56;99331.66;;;28.67;57.13
3544;BME280;1786;52.870;9.578;2023-07-24T05:55:23;99335.03;;;29.08;56.35
3544;BME280;1786;52.870;9.578;2023-07-24T05:57:50;99335.59;;;29.10;55.93
3544;BME280;1786;52.870;9.578;2023-07-24T06:00:17;99338.00;;;28.56;56.94
3544;BME280;1786;52.870;9.578;2023-07-24T06:02:44;99330.91;;;28.72;56.68
3544;BME280;1786;52.870;9.578;2023-07-24T06:05:11;99329.59;;;28.74;56.44
3544;BME280;1786;52.870;9.578;2023-07-24T06:07:38;99335.44;;;29.00;55.56
3544;BME280;1786;52.870;9.578;2023-07-24T06:10:05;99331.03;;;29.32;55.22
3544;BME280;1786;52.870;9.578;2023-07-24T06:12:32;99329.50;;;29.20;55.15
3544;BME280;1786;52.870;9.578;2023-07-24T06:14:58;99321.19;;;29.70;54.27
3544;BME280;1786;52.870;9.578;2023-07-24T06:17:25;99324.03;;;29.59;54.57
3544;BME280;1786;52.870;9.578;2023-07-24T06:19:52;99325.97;;;29.19;55.01
3544;BME280;1786;52.870;9.578;2023-07-24T06:22:19;99318.84;;;29.57;54.68
3544;BME280;1786;52.870;9.578;2023-07-24T06:24:45;99320.09;;;29.66;54.71
3544;BME280;1786;52.870;9.578;2023-07-24T06:27:12;99308.19;;;29.55;55.09
3544;BME280;1786;52.870;9.578;2023-07-24T06:29:38;99309.19;;;29.66;54.96
3544;BME280;1786;52.870;9.578;2023-07-24T06:32:06;99308.25;;;30.05;54.08
3544;BME280;1786;52.870;9.578;2023-07-24T06:34:33;99310.41;;;30.25;53.72
3544;BME280;1786;52.870;9.578;2023-07-24T06:37:00;99308.19;;;30.54;53.14
3544;BME280;1786;52.870;9.578;2023-07-24T06:39:46;99315.19;;;30.77;52.76
3544;BME280;1786;52.870;9.578;2023-07-24T06:42:13;99314.22;;;30.88;52.23
3544;BME280;1786;52.870;9.578;2023-07-24T06:44:40;99318.56;;;30.89;52.23
3544;BME280;1786;52.870;9.578;2023-07-24T06:47:07;99320.72;;;30.82;52.46
3544;BME280;1786;52.870;9.578;2023-07-24T06:49:34;99333.38;;;30.66;52.69
3544;BME280;1786;52.870;9.578;2023-07-24T06:52:01;99329.00;;;29.84;54.52
3544;BME280;1786;52.870;9.578;2023-07-24T06:54:28;99333.81;;;30.26;54.07
3544;BME280;1786;52.870;9.578;2023-07-24T06:56:54;99334.84;;;30.19;54.21
3544;BME280;1786;52.870;9.578;2023-07-24T06:59:21;99333.19;;;30.18;54.20
3544;BME280;1786;52.870;9.578;2023-07-24T07:01:48;99332.06;;;30.14;53.84
3544;BME280;1786;52.870;9.578;2023-07-24T07:04:16;99344.72;;;29.76;55.01
3544;BME280;1786;52.870;9.578;2023-07-24T07:06:43;99339.22;;;29.54;55.21
3544;BME280;1786;52.870;9.578;2023-07-24T07:09:10;99351.09;;;29.09;56.44
3544;BME280;1786;52.870;9.578;2023-07-24T07:11:37;99347.81;;;29.07;56.66
3544;BME280;1786;52.870;9.578;2023-07-24T07:14:03;99349.72;;;29.07;56.82
3544;BME280;1786;52.870;9.578;2023-07-24T07:16:30;99350.88;;;29.11;56.42
3544;BME280;1786;52.870;9.578;2023-07-24T07:18:57;99349.19;;;28.59;57.48
3544;BME280;1786;52.870;9.578;2023-07-24T07:21:24;99338.16;;;28.66;57.52
3544;BME280;1786;52.870;9.578;2023-07-24T07:23:50;99337.91;;;28.67;57.67
3544;BME280;1786;52.870;9.578;2023-07-24T07:26:17;99337.66;;;28.69;57.57
3544;BME280;1786;52.870;9.578;2023-07-24T07:28:44;99332.47;;;28.84;57.52
3544;BME280;1786;52.870;9.578;2023-07-24T07:31:11;99329.50;;;28.69;57.56
3544;BME280;1786;52.870;9.578;2023-07-24T07:33:38;99325.31;;;28.61;58.04
3544;BME280;1786;52.870;9.578;2023-07-24T07:36:05;99327.56;;;29.37;56.52
3544;BME280;1786;52.870;9.578;2023-07-24T07:38:32;99323.06;;;29.48;56.36
3544;BME280;1786;52.870;9.578;2023-07-24T07:41:04;99322.19;;;29.64;55.77
3544;BME280;1786;52.870;9.578;2023-07-24T07:43:30;99326.44;;;28.99;57.12
3544;BME280;1786;52.870;9.578;2023-07-24T07:45:57;99315.72;;;29.26;56.43
3544;BME280;1786;52.870;9.578;2023-07-24T07:48:25;99321.03;;;29.60;56.00
3544;BME280;1786;52.870;9.578;2023-07-24T07:50:52;99320.31;;;29.87;55.84
3544;BME280;1786;52.870;9.578;2023-07-24T07:53:19;99312.94;;;30.09;55.44
3544;BME280;1786;52.870;9.578;2023-07-24T07:55:45;99318.72;;;30.40;54.61
3544;BME280;1786;52.870;9.578;2023-07-24T07:58:12;99315.41;;;30.38;54.06
3544;BME280;1786;52.870;9.578;2023-07-24T08:00:39;99315.66;;;30.09;55.07
3544;BME280;1786;52.870;9.578;2023-07-24T08:03:06;99321.16;;;30.14;55.18
3544;BME280;1786;52.870;9.578;2023-07-24T08:05:33;99316.50;;;30.37;54.53
3544;BME280;1786;52.870;9.578;2023-07-24T08:08:00;99324.25;;;30.50;54.47
3544;BME280;1786;52.870;9.578;2023-07-24T08:10:26;99319.44;;;30.30;54.97
3544;BME280;1786;52.870;9.578;2023-07-24T08:12:53;99326.09;;;30.17;55.05
3544;BME280;1786;52.870;9.578;2023-07-24T08:15:20;99317.28;;;29.61;56.16
3544;BME280;1786;52.870;9.578;2023-07-24T08:17:46;99309.44;;;29.87;55.29
3544;BME280;1786;52.870;9.578;2023-07-24T08:20:13;99313.03;;;29.92;55.17
3544;BME280;1786;52.870;9.578;2023-07-24T08:22:40;99318.19;;;29.50;56.02
3544;BME280;1786;52.870;9.578;2023-07-24T08:25:07;99310.94;;;29.77;55.94
3544;BME280;1786;52.870;9.578;2023-07-24T08:27:34;99313.84;;;29.93;55.69
3544;BME280;1786;52.870;9.578;2023-07-24T08:30:20;99317.25;;;30.05;55.30
3544;BME280;1786;52.870;9.578;2023-07-24T08:32:47;99323.28;;;29.85;55.63
3544;BME280;1786;52.870;9.578;2023-07-24T08:35:16;99327.00;;;30.01;55.40
3544;BME280;1786;52.870;9.578;2023-07-24T08:37:43;99332.09;;;29.92;55.77
3544;BME280;1786;52.870;9.578;2023-07-24T08:40:11;99333.81;;;29.76;56.38
3544;BME280;1786;52.870;9.578;2023-07-24T08:42:38;99337.78;;;29.91;56.20
3544;BME280;1786;52.870;9.578;2023-07-24T08:45:11;99335.78;;;30.08;55.99
3544;BME280;1786;52.870;9.578;2023-07-24T08:47:44;99336.97;;;29.29;56.83
3544;BME280;1786;52.870;9.578;2023-07-24T08:50:12;99339.16;;;30.15;55.53
3544;BME280;1786;52.870;9.578;2023-07-24T08:52:41;99334.50;;;29.89;56.18
3544;BME280;1786;52.870;9.578;2023-07-24T08:55:09;99329.47;;;30.25;55.85
3544;BME280;1786;52.870;9.578;2023-07-24T08:57:36;99324.78;;;29.98;56.04
3544;BME280;1786;52.870;9.578;2023-07-24T09:00:03;99326.63;;;30.14;55.91
3544;BME280;1786;52.870;9.578;2023-07-24T09:02:35;99324.47;;;30.16;55.93
3544;BME280;1786;52.870;9.578;2023-07-24T09:05:03;99326.28;;;30.33;55.77
3544;BME280;1786;52.870;9.578;2023-07-24T09:07:30;99320.38;;;30.78;55.12
3544;BME280;1786;52.870;9.578;2023-07-24T09:09:58;99319.00;;;30.76;54.40
3544;BME280;1786;52.870;9.578;2023-07-24T09:12:25;99308.94;;;30.81;54.76
3544;BME280;1786;52.870;9.578;2023-07-24T09:15:03;99308.22;;;30.91;54.89
3544;BME280;1786;52.870;9.578;2023-07-24T09:17:33;99299.91;;;31.13;53.57
3544;BME280;1786;52.870;9.578;2023-07-24T09:20:00;99298.78;;;30.72;54.92
3544;BME280;1786;52.870;9.578;2023-07-24T09:22:28;99306.50;;;31.17;55.06
3544;BME280;1786;52.870;9.578;2023-07-24T09:24:56;99299.22;;;31.33;55.43
3544;BME280;1786;52.870;9.578;2023-07-24T09:27:29;99294.78;;;31.85;54.24
3544;BME280;1786;52.870;9.578;2023-07-24T09:29:58;99295.72;;;32.26;53.80
3544;BME280;1786;52.870;9.578;2023-07-24T09:32:27;99306.69;;;32.83;51.69
3544;BME280;1786;52.870;9.578;2023-07-24T09:34:54;99308.84;;;33.22;49.84
3544;BME280;1786;52.870;9.578;2023-07-24T09:37:26;99306.94;;;32.71;49.75
3544;BME280;1786;52.870;9.578;2023-07-24T09:39:53;99311.88;;;33.10;49.76
3544;BME280;1786;52.870;9.578;2023-07-24T09:42:32;99304.47;;;32.90;50.58
3544;BME280;1786;52.870;9.578;2023-07-24T09:45:04;99312.16;;;32.52;49.96
3544;BME280;1786;52.870;9.578;2023-07-24T09:47:31;99305.56;;;32.43;51.12
3544;BME280;1786;52.870;9.578;2023-07-24T09:50:16;99304.19;;;33.17;49.94
3544;BME280;1786;52.870;9.578;2023-07-24T09:52:44;99309.34;;;33.24;50.21
3544;BME280;1786;52.870;9.578;2023-07-24T09:55:15;99312.44;;;32.91;50.73
3544;BME280;1786;52.870;9.578;2023-07-24T09:57:46;99311.06;;;32.99;49.70
3544;BME280;1786;52.870;9.578;2023-07-24T10:00:13;99306.94;;;33.92;47.70
3544;BME280;1786;52.870;9.578;2023-07-24T10:02:41;99304.88;;;33.53;47.81
3544;BME280;1786;52.870;9.578;2023-07-24T10:05:08;99302.56;;;33.06;49.35
3544;BME280;1786;52.870;9.578;2023-07-24T10:07:35;99298.31;;;33.59;47.87
3544;BME280;1786;52.870;9.578;2023-07-24T10:10:02;99302.13;;;33.64;47.76
3544;BME280;1786;52.870;9.578;2023-07-24T10:12:29;99298.50;;;34.28;47.64
3544;BME280;1786;52.870;9.578;2023-07-24T10:14:58;99303.56;;;34.05;46.16
3544;BME280;1786;52.870;9.578;2023-07-24T10:17:38;99307.44;;;33.94;46.48
3544;BME280;1786;52.870;9.578;2023-07-24T10:20:07;99307.38;;;34.04;46.04
3544;BME280;1786;52.870;9.578;2023-07-24T10:22:36;99307.25;;;32.74;48.30
3544;BME280;1786;52.870;9.578;2023-07-24T10:25:09;99307.22;;;33.10;50.35
3544;BME280;1786;52.870;9.578;2023-07-24T10:27:39;99309.63;;;33.27;49.48
3544;BME280;1786;52.870;9.578;2023-07-24T10:30:08;99288.28;;;33.29;47.76
3544;BME280;1786;52.870;9.578;2023-07-24T10:32:48;99291.22;;;33.43;48.20
3544;BME280;1786;52.870;9.578;2023-07-24T10:35:21;99285.69;;;33.64;47.25
3544;BME280;1786;52.870;9.578;2023-07-24T10:37:59;99285.16;;;33.51;46.68
3544;BME280;1786;52.870;9.578;2023-07-24T10:40:27;99280.28;;;33.38;47.79
3544;BME280;1786;52.870;9.578;2023-07-24T10:43:07;99274.22;;;33.46;47.02
3544;BME280;1786;52.870;9.578;2023-07-24T10:45:51;99285.53;;;33.34;46.99
3544;BME280;1786;52.870;9.578;2023-07-24T10:48:20;99278.75;;;32.86;47.57
3544;BME280;1786;52.870;9.578;2023-07-24T10:50:49;99272.31;;;33.57;46.88
3544;BME280;1786;52.870;9.578;2023-07-24T10:53:21;99272.16;;;33.17;48.33
3544;BME280;1786;52.870;9.578;2023-07-24T10:55:49;99262.91;;;33.73;47.63
3544;BME280;1786;52.870;9.578;2023-07-24T10:58:19;99267.75;;;34.31;46.73
3544;BME280;1786;52.870;9.578;2023-07-24T11:00:46;99265.50;;;34.73;46.50
3544;BME280;1786;52.870;9.578;2023-07-24T11:03:14;99269.84;;;35.03;46.01
3544;BME280;1786;52.870;9.578;2023-07-24T11:05:43;99270.69;;;35.27;45.32
3544;BME280;1786;52.870;9.578;2023-07-24T11:08:12;99268.47;;;35.29;45.61
3544;BME280;1786;52.870;9.578;2023-07-24T11:10:49;99260.88;;;35.21;43.65
3544;BME280;1786;52.870;9.578;2023-07-24T11:13:18;99254.66;;;35.35;44.13
3544;BME280;1786;52.870;9.578;2023-07-24T11:15:46;99253.38;;;35.51;43.19
3544;BME280;1786;52.870;9.578;2023-07-24T11:18:13;99254.47;;;35.50;43.41
3544;BME280;1786;52.870;9.578;2023-07-24T11:20:44;99259.97;;;35.02;44.06
3544;BME280;1786;52.870;9.578;2023-07-24T11:23:12;99253.38;;;34.10;44.87
3544;BME280;1786;52.870;9.578;2023-07-24T11:25:40;99252.28;;;34.06;45.14
3544;BME280;1786;52.870;9.578;2023-07-24T11:28:09;99242.03;;;34.22;45.56
3544;BME280;1786;52.870;9.578;2023-07-24T11:30:36;99236.72;;;33.96;45.36
3544;BME280;1786;52.870;9.578;2023-07-24T11:33:04;99235.63;;;33.97;44.67
3544;BME280;1786;52.870;9.578;2023-07-24T11:35:32;99236.25;;;33.84;44.66
3544;BME280;1786;52.870;9.578;2023-07-24T11:37:59;99241.56;;;32.80;47.01
3544;BME280;1786;52.870;9.578;2023-07-24T11:40:34;99237.75;;;32.65;47.62
3544;BME280;1786;52.870;9.578;2023-07-24T11:43:02;99241.28;;;32.91;47.33
3544;BME280;1786;52.870;9.578;2023-07-24T11:45:30;99248.03;;;33.25;46.99
3544;BME280;1786;52.870;9.578;2023-07-24T11:47:57;99247.91;;;33.50;47.47
3544;BME280;1786;52.870;9.578;2023-07-24T11:50:24;99246.44;;;33.08;46.66
3544;BME280;1786;52.870;9.578;2023-07-24T11:52:51;99247.28;;;33.09;46.67
3544;BME280;1786;52.870;9.578;2023-07-24T11:55:39;99242.16;;;33.62;46.04
3544;BME280;1786;52.870;9.578;2023-07-24T11:58:05;99249.16;;;33.13;47.26
3544;BME280;1786;52.870;9.578;2023-07-24T12:00:33;99243.59;;;33.34;46.27
3544;BME280;1786;52.870;9.578;2023-07-24T12:03:03;99245.22;;;33.40;46.08
3544;BME280;1786;52.870;9.578;2023-07-24T12:05:38;99239.69;;;33.60;45.47
3544;BME280;1786;52.870;9.578;2023-07-24T12:08:05;99247.31;;;33.69;46.90
3544;BME280;1786;52.870;9.578;2023-07-24T12:10:32;99242.97;;;34.12;46.40
3544;BME280;1786;52.870;9.578;2023-07-24T12:13:01;99240.13;;;34.22;44.46
3544;BME280;1786;52.870;9.578;2023-07-24T12:15:28;99230.53;;;33.80;45.21
3544;BME280;1786;52.870;9.578;2023-07-24T12:17:55;99223.94;;;34.21;45.21
3544;BME280;1786;52.870;9.578;2023-07-24T12:20:23;99235.41;;;34.62;44.59
3544;BME280;1786;52.870;9.578;2023-07-24T12:22:50;99218.47;;;34.21;44.24
3544;BME280;1786;52.870;9.578;2023-07-24T12:25:16;99229.34;;;34.31;43.44
3544;BME280;1786;52.870;9.578;2023-07-24T12:27:43;99222.06;;;33.72;44.05
3544;BME280;1786;52.870;9.578;2023-07-24T12:30:10;99220.19;;;34.07;43.19
3544;BME280;1786;52.870;9.578;2023-07-24T12:32:36;99222.84;;;34.22;43.20
3544;BME280;1786;52.870;9.578;2023-07-24T12:35:03;99223.00;;;34.94;42.57
3544;BME280;1786;52.870;9.578;2023-07-24T12:37:31;99231.00;;;34.90;42.03
3544;BME280;1786;52.870;9.578;2023-07-24T12:39:58;99214.47;;;34.96;42.05
3544;BME280;1786;52.870;9.578;2023-07-24T12:42:24;99222.22;;;34.64;41.91
3544;BME280;1786;52.870;9.578;2023-07-24T12:44:51;99221.34;;;34.00;42.87
3544;BME280;1786;52.870;9.578;2023-07-24T12:47:18;99212.53;;;34.03;43.38
3544;BME280;1786;52.870;9.578;2023-07-24T12:49:45;99211.81;;;33.93;43.13
3544;BME280;1786;52.870;9.578;2023-07-24T12:52:11;99211.81;;;33.93;42.98
3544;BME280;1786;52.870;9.578;2023-07-24T12:54:38;99211.81;;;33.38;44.06
3544;BME280;1786;52.870;9.578;2023-07-24T12:57:26;99203.19;;;34.15;43.67
3544;BME280;1786;52.870;9.578;2023-07-24T12:59:53;99205.19;;;34.33;42.73
3544;BME280;1786;52.870;9.578;2023-07-24T13:02:20;99206.31;;;34.61;42.24
3544;BME280;1786;52.870;9.578;2023-07-24T13:04:46;99206.81;;;34.93;42.11
3544;BME280;1786;52.870;9.578;2023-07-24T13:07:13;99200.59;;;35.11;41.24
3544;BME280;1786;52.870;9.578;2023-07-24T13:09:40;99190.31;;;34.39;43.04
3544;BME280;1786;52.870;9.578;2023-07-24T13:12:07;99204.81;;;34.74;41.57
3544;BME280;1786;52.870;9.578;2023-07-24T13:14:34;99200.50;;;34.68;41.88
3544;BME280;1786;52.870;9.578;2023-07-24T13:17:00;99194.91;;;34.78;40.75
3544;BME280;1786;52.870;9.578;2023-07-24T13:19:27;99192.22;;;34.73;41.16
3544;BME280;1786;52.870;9.578;2023-07-24T13:21:54;99186.97;;;35.01;41.85
3544;BME280;1786;52.870;9.578;2023-07-24T13:24:20;99180.03;;;35.08;40.66
3544;BME280;1786;52.870;9.578;2023-07-24T13:26:48;99190.75;;;34.52;41.89